Chignik Lagoon, Alaska
Current Conditions -  °F | °C
As of 11:16 PM on Monday 20 Oct 2014 (Local Time) from PAJC Reporting Station
Overcast Overcast  
Wind Chill: 31°   Ceiling: 8500
Heat Index: 36°   Visibility: 10mi
Dew Point: 25°   Wind: 6mph
Humidity: 65%   Direction: 260°W
Pressure: 29.18"   Gusts: NA
Location:  56.28°N, 158.51°W
Report Text: PAJC 210716Z AUTO 26005KT 10SM OVC085 02/M04 A2918 RMK AO1
Loading
Personal Weather Stations






























Interactive Weather Map
Tropical Storm Tracking
New forecast layout! Learn more

10-Day Weather Forecast

Advertisements
Track Severe Weather on mobile